Time,TemperatureF,DewpointF,PressureIn,WindDirection,WindDirectionDegrees,WindSpeedMPH,WindSpeedGustMPH,Humidity,HourlyPrecipIn,Conditions,Clouds,dailyrainin,SoftwareType,DateUTC
2013-12-04 00:22:00,49.0,49.0,-100.00,ESE,110,2.0,6.0,99,-99.99,,,-99.99,,2013-12-04 06:22:00,
2013-12-04 00:52:00,50.0,50.0,-100.00,SE,130,2.0,4.0,99,-99.99,,,-99.99,,2013-12-04 06:52:00,
2013-12-04 01:22:00,51.0,51.0,-100.00,SSE,150,4.0,6.0,99,-99.99,,,-99.99,,2013-12-04 07:22:00,
2013-12-04 01:52:00,51.0,51.0,-100.00,ESE,115,4.0,7.0,99,-99.99,,,-99.99,,2013-12-04 07:52:00,
2013-12-04 02:22:00,52.0,52.0,-100.00,ESE,115,3.0,7.0,99,-99.99,,,-99.99,,2013-12-04 08:22:00,
2013-12-04 02:52:00,53.0,52.0,-100.00,ESE,115,4.0,7.0,99,-99.99,,,-99.99,,2013-12-04 08:52:00,
2013-12-04 03:22:00,52.0,52.0,-100.00,SE,135,1.0,6.0,99,-99.99,,,-99.99,,2013-12-04 09:22:00,
2013-12-04 03:53:00,53.0,52.0,-100.00,SSE,150,3.0,6.0,99,-99.99,,,-99.99,,2013-12-04 09:53:00,
2013-12-04 04:53:00,51.0,51.0,-100.00,ESE,105,2.0,4.0,97,-99.99,,,-99.99,,2013-12-04 10:53:00,
2013-12-04 05:22:00,52.0,51.0,-100.00,SE,125,2.0,5.0,97,-99.99,,,-99.99,,2013-12-04 11:22:00,
2013-12-04 05:53:00,52.0,51.0,-100.00,ESE,115,4.0,8.0,97,-99.99,,,-99.99,,2013-12-04 11:53:00,
2013-12-04 06:22:00,52.0,51.0,-100.00,ESE,110,4.0,9.0,98,-99.99,,,-99.99,,2013-12-04 12:22:00,
2013-12-04 06:52:00,52.0,52.0,-100.00,ESE,115,2.0,10.0,98,-99.99,,,-99.99,,2013-12-04 12:52:00,
2013-12-04 07:22:00,52.0,52.0,-100.00,ESE,115,4.0,6.0,99,-99.99,,,-99.99,,2013-12-04 13:22:00,
2013-12-04 07:52:00,53.0,52.0,-100.00,ESE,115,2.0,4.0,99,-99.99,,,-99.99,,2013-12-04 13:52:00,
2013-12-04 08:22:00,53.0,53.0,-100.00,SSE,165,1.0,2.0,99,-99.99,,,-99.99,,2013-12-04 14:22:00,
2013-12-04 08:52:00,53.0,53.0,-100.00,ESE,115,2.0,6.0,99,-99.99,,,-99.99,,2013-12-04 14:52:00,
2013-12-04 09:22:00,54.0,54.0,-100.00,SSE,150,4.0,6.0,99,-99.99,,,-99.99,,2013-12-04 15:22:00,
2013-12-04 09:53:00,54.0,54.0,-100.00,SE,140,2.0,8.0,99,-99.99,,,-99.99,,2013-12-04 15:53:00,
2013-12-04 10:23:00,56.0,55.0,-100.00,SSE,150,7.0,12.0,99,-99.99,,,-99.99,,2013-12-04 16:23:00,
2013-12-04 10:53:00,56.0,56.0,-100.00,SSE,150,9.0,16.0,99,-99.99,,,-99.99,,2013-12-04 16:53:00,
2013-12-04 11:22:00,57.0,56.0,-100.00,SSE,160,10.0,19.0,97,-99.99,,,-99.99,,2013-12-04 17:22:00,
2013-12-04 11:53:00,59.0,56.0,-100.00,SSE,160,9.0,18.0,89,-99.99,,,-99.99,,2013-12-04 17:53:00,
2013-12-04 12:22:00,61.0,55.0,-100.00,South,175,11.0,19.0,82,-99.99,,,-99.99,,2013-12-04 18:22:00,
2013-12-04 12:52:00,63.0,55.0,-100.00,South,180,11.0,24.0,73,-99.99,,,-99.99,,2013-12-04 18:52:00,
2013-12-04 13:22:00,64.0,53.0,-100.00,SSE,150,10.0,21.0,69,-99.99,,,-99.99,,2013-12-04 19:22:00,
2013-12-04 13:52:00,65.0,53.0,-100.00,SE,145,14.0,28.0,64,-99.99,,,-99.99,,2013-12-04 19:52:00,
2013-12-04 14:22:00,65.0,53.0,-100.00,SSE,165,19.0,29.0,64,-99.99,,,-99.99,,2013-12-04 20:22:00,
2013-12-04 14:52:00,67.0,53.0,-100.00,South,170,13.0,24.0,61,-99.99,,,-99.99,,2013-12-04 20:52:00,
2013-12-04 15:22:00,68.0,53.0,-100.00,South,180,14.0,23.0,60,-99.99,,,-99.99,,2013-12-04 21:22:00,
2013-12-04 15:54:00,67.0,52.0,-100.00,SSW,205,17.0,26.0,60,-99.99,,,-99.99,,2013-12-04 21:54:00,
2013-12-04 16:23:00,67.0,52.0,-100.00,South,170,14.0,21.0,60,-99.99,,,-99.99,,2013-12-04 22:23:00,
2013-12-04 16:53:00,66.0,52.0,-100.00,SSW,195,8.0,16.0,62,-99.99,,,-99.99,,2013-12-04 22:53:00,
2013-12-04 17:22:00,65.0,52.0,-100.00,SSW,195,12.0,17.0,63,-99.99,,,-99.99,,2013-12-04 23:22:00,
2013-12-04 17:53:00,64.0,52.0,-100.00,SSW,195,6.0,13.0,65,-99.99,,,-99.99,,2013-12-04 23:53:00,
2013-12-04 18:22:00,63.0,52.0,-100.00,South,190,8.0,13.0,67,-99.99,,,-99.99,,2013-12-05 00:22:00,
2013-12-04 18:52:00,62.0,52.0,-100.00,SW,220,9.0,13.0,72,-99.99,,,-99.99,,2013-12-05 00:52:00,
2013-12-04 19:22:00,59.0,50.0,-100.00,NW,310,14.0,21.0,70,-99.99,,,-99.99,,2013-12-05 01:22:00,
2013-12-04 19:52:00,57.0,48.0,-100.00,WNW,290,9.0,14.0,72,-99.99,,,-99.99,,2013-12-05 01:52:00,
2013-12-04 20:22:00,54.0,46.0,-100.00,NW,310,9.0,14.0,74,-99.99,,,-99.99,,2013-12-05 02:22:00,
2013-12-04 21:22:00,53.0,44.0,-100.00,WNW,285,11.0,22.0,73,-99.99,,,-99.99,,2013-12-05 03:22:00,
2013-12-04 21:54:00,51.0,43.0,-100.00,West,265,14.0,24.0,72,-99.99,,,-99.99,,2013-12-05 03:54:00,
2013-12-04 22:23:00,49.0,42.0,-100.00,WNW,290,9.0,19.0,74,-99.99,,,-99.99,,2013-12-05 04:23:00,
2013-12-04 22:53:00,47.0,39.0,-100.00,WNW,295,14.0,17.0,74,-99.99,,,-99.99,,2013-12-05 04:53:00,
2013-12-04 23:23:00,47.0,39.0,-100.00,West,270,11.0,18.0,75,-99.99,,,-99.99,,2013-12-05 05:23:00,
2013-12-04 23:53:00,45.0,37.0,-100.00,West,270,16.0,24.0,73,-99.99,,,-99.99,,2013-12-05 05:53:00,